sensor_id;sensor_type;location;lat;lon;timestamp;temperature;humidity
1361;DHT22;674;45.552;-122.600;2023-07-02T00:00:55;27.30;1.00
1361;DHT22;674;45.552;-122.600;2023-07-02T00:03:23;27.20;1.00
1361;DHT22;674;45.552;-122.600;2023-07-02T00:05:51;27.20;1.00
1361;DHT22;674;45.552;-122.600;2023-07-02T00:08:22;27.30;1.00
1361;DHT22;674;45.552;-122.600;2023-07-02T00:10:50;27.20;1.00
1361;DHT22;674;45.552;-122.600;2023-07-02T00:13:18;27.20;1.00
1361;DHT22;674;45.552;-122.600;2023-07-02T00:15:46;27.20;1.00
1361;DHT22;674;45.552;-122.600;2023-07-02T00:18:15;27.20;1.00
1361;DHT22;674;45.552;-122.600;2023-07-02T00:20:43;27.20;1.00
1361;DHT22;674;45.552;-122.600;2023-07-02T00:23:12;27.20;1.00
1361;DHT22;674;45.552;-122.600;2023-07-02T00:25:40;27.20;1.00
1361;DHT22;674;45.552;-122.600;2023-07-02T00:28:08;27.10;1.00
1361;DHT22;674;45.552;-122.600;2023-07-02T00:30:36;27.20;1.00
1361;DHT22;674;45.552;-122.600;2023-07-02T00:33:04;27.20;1.00
1361;DHT22;674;45.552;-122.600;2023-07-02T00:35:32;27.20;1.00
1361;DHT22;674;45.552;-122.600;2023-07-02T00:38:07;27.10;1.00
1361;DHT22;674;45.552;-122.600;2023-07-02T00:40:35;27.10;1.00
1361;DHT22;674;45.552;-122.600;2023-07-02T00:43:04;27.10;1.00
1361;DHT22;674;45.552;-122.600;2023-07-02T00:45:32;27.00;1.00
1361;DHT22;674;45.552;-122.600;2023-07-02T00:48:01;27.00;1.00
1361;DHT22;674;45.552;-122.600;2023-07-02T00:50:29;27.00;1.00
1361;DHT22;674;45.552;-122.600;2023-07-02T00:52:57;26.90;1.00
1361;DHT22;674;45.552;-122.600;2023-07-02T00:55:25;26.90;1.00
1361;DHT22;674;45.552;-122.600;2023-07-02T00:57:53;27.00;1.00
1361;DHT22;674;45.552;-122.600;2023-07-02T01:00:24;26.90;1.00
1361;DHT22;674;45.552;-122.600;2023-07-02T01:02:55;26.90;1.00
1361;DHT22;674;45.552;-122.600;2023-07-02T01:05:26;26.90;1.00
1361;DHT22;674;45.552;-122.600;2023-07-02T01:08:03;26.90;1.00
1361;DHT22;674;45.552;-122.600;2023-07-02T01:10:32;26.90;1.00
1361;DHT22;674;45.552;-122.600;2023-07-02T01:13:07;26.80;1.00
1361;DHT22;674;45.552;-122.600;2023-07-02T01:15:37;26.80;1.00
1361;DHT22;674;45.552;-122.600;2023-07-02T01:18:05;26.80;1.00
1361;DHT22;674;45.552;-122.600;2023-07-02T01:20:34;26.80;1.00
1361;DHT22;674;45.552;-122.600;2023-07-02T01:23:02;26.70;1.00
1361;DHT22;674;45.552;-122.600;2023-07-02T01:25:31;26.70;1.00
1361;DHT22;674;45.552;-122.600;2023-07-02T01:28:03;26.70;1.00
1361;DHT22;674;45.552;-122.600;2023-07-02T01:30:31;26.70;1.00
1361;DHT22;674;45.552;-122.600;2023-07-02T01:32:59;26.60;1.00
1361;DHT22;674;45.552;-122.600;2023-07-02T01:35:28;26.50;1.00
1361;DHT22;674;45.552;-122.600;2023-07-02T01:37:56;26.40;1.00
1361;DHT22;674;45.552;-122.600;2023-07-02T01:40:24;26.40;1.00
1361;DHT22;674;45.552;-122.600;2023-07-02T01:42:52;26.40;1.00
1361;DHT22;674;45.552;-122.600;2023-07-02T01:45:20;26.50;1.00
1361;DHT22;674;45.552;-122.600;2023-07-02T01:47:48;26.50;1.00
1361;DHT22;674;45.552;-122.600;2023-07-02T01:50:17;26.40;1.00
1361;DHT22;674;45.552;-122.600;2023-07-02T01:52:45;26.40;1.00
1361;DHT22;674;45.552;-122.600;2023-07-02T01:55:13;26.40;1.00
1361;DHT22;674;45.552;-122.600;2023-07-02T01:57:41;26.40;1.00
1361;DHT22;674;45.552;-122.600;2023-07-02T02:00:09;26.40;1.00
1361;DHT22;674;45.552;-122.600;2023-07-02T02:02:38;26.30;1.00
1361;DHT22;674;45.552;-122.600;2023-07-02T02:05:06;26.30;1.00
1361;DHT22;674;45.552;-122.600;2023-07-02T02:07:35;26.30;1.00
1361;DHT22;674;45.552;-122.600;2023-07-02T02:10:04;26.20;1.00
1361;DHT22;674;45.552;-122.600;2023-07-02T02:12:32;26.00;1.00
1361;DHT22;674;45.552;-122.600;2023-07-02T02:15:00;26.10;1.00
1361;DHT22;674;45.552;-122.600;2023-07-02T02:17:28;26.00;1.00
1361;DHT22;674;45.552;-122.600;2023-07-02T02:19:56;26.00;1.00
1361;DHT22;674;45.552;-122.600;2023-07-02T02:22:24;25.90;1.00
1361;DHT22;674;45.552;-122.600;2023-07-02T02:24:52;25.80;1.00
1361;DHT22;674;45.552;-122.600;2023-07-02T02:27:21;25.80;1.00
1361;DHT22;674;45.552;-122.600;2023-07-02T02:29:49;25.70;1.00
1361;DHT22;674;45.552;-122.600;2023-07-02T02:32:17;25.70;1.00
1361;DHT22;674;45.552;-122.600;2023-07-02T02:34:47;25.60;1.00
1361;DHT22;674;45.552;-122.600;2023-07-02T02:37:15;25.50;1.00
1361;DHT22;674;45.552;-122.600;2023-07-02T02:39:43;25.40;1.00
1361;DHT22;674;45.552;-122.600;2023-07-02T02:42:11;25.40;1.00
1361;DHT22;674;45.552;-122.600;2023-07-02T02:44:39;25.30;1.00
1361;DHT22;674;45.552;-122.600;2023-07-02T02:47:08;25.30;1.00
1361;DHT22;674;45.552;-122.600;2023-07-02T02:49:37;25.20;1.00
1361;DHT22;674;45.552;-122.600;2023-07-02T02:52:06;25.10;1.00
1361;DHT22;674;45.552;-122.600;2023-07-02T02:54:34;25.00;1.00
1361;DHT22;674;45.552;-122.600;2023-07-02T02:57:02;24.90;1.00
1361;DHT22;674;45.552;-122.600;2023-07-02T02:59:30;24.80;1.00
1361;DHT22;674;45.552;-122.600;2023-07-02T03:01:58;24.80;1.00
1361;DHT22;674;45.552;-122.600;2023-07-02T03:04:26;24.70;1.00
1361;DHT22;674;45.552;-122.600;2023-07-02T03:06:54;24.60;1.00
1361;DHT22;674;45.552;-122.600;2023-07-02T03:09:23;24.60;1.00
1361;DHT22;674;45.552;-122.600;2023-07-02T03:11:51;24.50;1.00
1361;DHT22;674;45.552;-122.600;2023-07-02T03:14:22;24.50;1.00
1361;DHT22;674;45.552;-122.600;2023-07-02T03:16:50;24.40;1.00
1361;DHT22;674;45.552;-122.600;2023-07-02T03:19:18;24.30;1.00
1361;DHT22;674;45.552;-122.600;2023-07-02T03:21:46;24.20;1.00
1361;DHT22;674;45.552;-122.600;2023-07-02T03:24:14;24.10;1.00
1361;DHT22;674;45.552;-122.600;2023-07-02T03:26:43;24.00;1.00
1361;DHT22;674;45.552;-122.600;2023-07-02T03:29:11;23.90;1.00
1361;DHT22;674;45.552;-122.600;2023-07-02T03:31:40;23.90;1.00
1361;DHT22;674;45.552;-122.600;2023-07-02T03:34:08;23.80;1.00
1361;DHT22;674;45.552;-122.600;2023-07-02T03:36:37;23.70;1.00
1361;DHT22;674;45.552;-122.600;2023-07-02T03:39:05;23.60;1.00
1361;DHT22;674;45.552;-122.600;2023-07-02T03:41:36;23.60;1.00
1361;DHT22;674;45.552;-122.600;2023-07-02T03:44:04;23.50;1.00
1361;DHT22;674;45.552;-122.600;2023-07-02T03:46:32;23.40;1.00
1361;DHT22;674;45.552;-122.600;2023-07-02T03:49:01;23.40;1.00
1361;DHT22;674;45.552;-122.600;2023-07-02T03:51:30;23.30;1.00
1361;DHT22;674;45.552;-122.600;2023-07-02T03:53:59;23.30;1.00
1361;DHT22;674;45.552;-122.600;2023-07-02T03:56:27;23.20;1.00
1361;DHT22;674;45.552;-122.600;2023-07-02T03:58:55;23.10;1.00
1361;DHT22;674;45.552;-122.600;2023-07-02T04:01:23;23.00;1.00
1361;DHT22;674;45.552;-122.600;2023-07-02T04:03:52;23.00;1.00
1361;DHT22;674;45.552;-122.600;2023-07-02T04:06:20;22.90;1.00
1361;DHT22;674;45.552;-122.600;2023-07-02T04:08:48;22.90;1.00
1361;DHT22;674;45.552;-122.600;2023-07-02T04:11:17;22.80;1.00
1361;DHT22;674;45.552;-122.600;2023-07-02T04:13:45;22.70;1.00
1361;DHT22;674;45.552;-122.600;2023-07-02T04:16:13;22.70;1.00
1361;DHT22;674;45.552;-122.600;2023-07-02T04:18:41;22.60;1.00
1361;DHT22;674;45.552;-122.600;2023-07-02T04:21:09;22.60;1.00
1361;DHT22;674;45.552;-122.600;2023-07-02T04:23:37;22.60;1.00
1361;DHT22;674;45.552;-122.600;2023-07-02T04:26:06;22.50;1.00
1361;DHT22;674;45.552;-122.600;2023-07-02T04:28:54;22.30;1.00
1361;DHT22;674;45.552;-122.600;2023-07-02T04:31:22;22.30;1.00
1361;DHT22;674;45.552;-122.600;2023-07-02T04:33:51;22.20;1.00
1361;DHT22;674;45.552;-122.600;2023-07-02T04:36:19;22.10;1.00
1361;DHT22;674;45.552;-122.600;2023-07-02T04:38:47;22.10;1.00
1361;DHT22;674;45.552;-122.600;2023-07-02T04:41:17;22.00;1.00
1361;DHT22;674;45.552;-122.600;2023-07-02T04:43:46;21.90;1.00
1361;DHT22;674;45.552;-122.600;2023-07-02T04:46:14;21.90;1.00
1361;DHT22;674;45.552;-122.600;2023-07-02T04:48:42;21.80;1.00
1361;DHT22;674;45.552;-122.600;2023-07-02T04:51:10;21.70;1.00
1361;DHT22;674;45.552;-122.600;2023-07-02T04:53:38;21.60;1.00
1361;DHT22;674;45.552;-122.600;2023-07-02T04:56:06;21.60;1.00
1361;DHT22;674;45.552;-122.600;2023-07-02T04:58:35;21.60;1.00
1361;DHT22;674;45.552;-122.600;2023-07-02T05:01:03;21.50;1.00
1361;DHT22;674;45.552;-122.600;2023-07-02T05:03:32;21.50;1.00
1361;DHT22;674;45.552;-122.600;2023-07-02T05:06:00;21.40;1.00
1361;DHT22;674;45.552;-122.600;2023-07-02T05:08:28;21.30;1.00
1361;DHT22;674;45.552;-122.600;2023-07-02T05:10:56;21.20;1.00
1361;DHT22;674;45.552;-122.600;2023-07-02T05:13:24;21.20;1.00
1361;DHT22;674;45.552;-122.600;2023-07-02T05:15:52;21.10;1.00
1361;DHT22;674;45.552;-122.600;2023-07-02T05:18:20;21.10;1.00
1361;DHT22;674;45.552;-122.600;2023-07-02T05:20:49;21.10;1.00
1361;DHT22;674;45.552;-122.600;2023-07-02T05:23:17;21.00;1.00
1361;DHT22;674;45.552;-122.600;2023-07-02T05:25:45;20.90;1.00
1361;DHT22;674;45.552;-122.600;2023-07-02T05:28:13;20.90;1.00
1361;DHT22;674;45.552;-122.600;2023-07-02T05:30:41;20.70;1.00
1361;DHT22;674;45.552;-122.600;2023-07-02T05:33:10;20.70;1.00
1361;DHT22;674;45.552;-122.600;2023-07-02T05:35:38;20.60;1.00
1361;DHT22;674;45.552;-122.600;2023-07-02T05:38:06;20.60;1.00
1361;DHT22;674;45.552;-122.600;2023-07-02T05:40:34;20.50;1.00
1361;DHT22;674;45.552;-122.600;2023-07-02T05:43:02;20.40;1.00
1361;DHT22;674;45.552;-122.600;2023-07-02T05:45:30;20.40;1.00
1361;DHT22;674;45.552;-122.600;2023-07-02T05:47:59;20.30;1.00
1361;DHT22;674;45.552;-122.600;2023-07-02T05:50:27;20.30;1.00
1361;DHT22;674;45.552;-122.600;2023-07-02T05:52:55;20.20;1.00
1361;DHT22;674;45.552;-122.600;2023-07-02T05:55:23;20.20;1.00
1361;DHT22;674;45.552;-122.600;2023-07-02T05:57:52;20.20;1.00
1361;DHT22;674;45.552;-122.600;2023-07-02T06:00:20;20.10;1.00
1361;DHT22;674;45.552;-122.600;2023-07-02T06:02:48;20.10;1.00
1361;DHT22;674;45.552;-122.600;2023-07-02T06:05:17;20.00;1.00
1361;DHT22;674;45.552;-122.600;2023-07-02T06:07:45;20.00;1.00
1361;DHT22;674;45.552;-122.600;2023-07-02T06:10:13;19.90;1.00
1361;DHT22;674;45.552;-122.600;2023-07-02T06:12:42;19.80;1.00
1361;DHT22;674;45.552;-122.600;2023-07-02T06:15:10;19.80;1.00
1361;DHT22;674;45.552;-122.600;2023-07-02T06:17:39;19.70;1.00
1361;DHT22;674;45.552;-122.600;2023-07-02T06:20:07;19.70;1.00
1361;DHT22;674;45.552;-122.600;2023-07-02T06:22:35;19.60;1.00
1361;DHT22;674;45.552;-122.600;2023-07-02T06:25:03;19.60;1.00
1361;DHT22;674;45.552;-122.600;2023-07-02T06:27:32;19.50;1.00
1361;DHT22;674;45.552;-122.600;2023-07-02T06:30:00;19.50;1.00
1361;DHT22;674;45.552;-122.600;2023-07-02T06:32:28;19.40;1.00
1361;DHT22;674;45.552;-122.600;2023-07-02T06:34:57;19.40;1.00
1361;DHT22;674;45.552;-122.600;2023-07-02T06:37:25;19.30;1.00
1361;DHT22;674;45.552;-122.600;2023-07-02T06:39:53;19.30;1.00
1361;DHT22;674;45.552;-122.600;2023-07-02T06:42:21;19.30;1.00
1361;DHT22;674;45.552;-122.600;2023-07-02T06:44:49;19.20;1.00
1361;DHT22;674;45.552;-122.600;2023-07-02T06:47:17;19.20;1.00
1361;DHT22;674;45.552;-122.600;2023-07-02T06:49:47;19.10;1.00
1361;DHT22;674;45.552;-122.600;2023-07-02T06:52:15;19.10;1.00
1361;DHT22;674;45.552;-122.600;2023-07-02T06:54:43;19.10;1.00
1361;DHT22;674;45.552;-122.600;2023-07-02T06:57:14;19.00;1.00
1361;DHT22;674;45.552;-122.600;2023-07-02T06:59:42;19.00;1.00
1361;DHT22;674;45.552;-122.600;2023-07-02T07:02:10;18.90;1.00
1361;DHT22;674;45.552;-122.600;2023-07-02T07:04:39;18.90;1.00
1361;DHT22;674;45.552;-122.600;2023-07-02T07:07:07;18.80;1.00
1361;DHT22;674;45.552;-122.600;2023-07-02T07:09:35;18.80;1.00
1361;DHT22;674;45.552;-122.600;2023-07-02T07:12:03;18.80;1.00
1361;DHT22;674;45.552;-122.600;2023-07-02T07:14:31;18.80;1.00
1361;DHT22;674;45.552;-122.600;2023-07-02T07:16:59;18.70;1.00
1361;DHT22;674;45.552;-122.600;2023-07-02T07:19:28;18.70;1.00
1361;DHT22;674;45.552;-122.600;2023-07-02T07:21:56;18.70;1.00
1361;DHT22;674;45.552;-122.600;2023-07-02T07:24:25;18.60;1.00
1361;DHT22;674;45.552;-122.600;2023-07-02T07:26:53;18.60;1.00
1361;DHT22;674;45.552;-122.600;2023-07-02T07:29:21;18.60;1.00
1361;DHT22;674;45.552;-122.600;2023-07-02T07:31:49;18.50;1.00
1361;DHT22;674;45.552;-122.600;2023-07-02T07:34:18;18.50;1.00
1361;DHT22;674;45.552;-122.600;2023-07-02T07:36:46;18.40;1.00
1361;DHT22;674;45.552;-122.600;2023-07-02T07:39:14;18.40;1.00
1361;DHT22;674;45.552;-122.600;2023-07-02T07:41:46;18.30;1.00
1361;DHT22;674;45.552;-122.600;2023-07-02T07:44:14;18.20;1.00
1361;DHT22;674;45.552;-122.600;2023-07-02T07:46:42;18.30;1.00
1361;DHT22;674;45.552;-122.600;2023-07-02T07:49:10;18.20;1.00
1361;DHT22;674;45.552;-122.600;2023-07-02T07:51:38;18.20;1.00
1361;DHT22;674;45.552;-122.600;2023-07-02T07:54:06;18.10;1.00
1361;DHT22;674;45.552;-122.600;2023-07-02T07:56:34;18.20;1.00
1361;DHT22;674;45.552;-122.600;2023-07-02T07:59:03;18.20;1.00
1361;DHT22;674;45.552;-122.600;2023-07-02T08:01:31;18.10;1.00
1361;DHT22;674;45.552;-122.600;2023-07-02T08:03:59;18.10;1.00
1361;DHT22;674;45.552;-122.600;2023-07-02T08:06:27;18.10;1.00
1361;DHT22;674;45.552;-122.600;2023-07-02T08:08:55;18.10;1.00
1361;DHT22;674;45.552;-122.600;2023-07-02T08:11:23;18.00;1.00
1361;DHT22;674;45.552;-122.600;2023-07-02T08:13:51;18.00;1.00
1361;DHT22;674;45.552;-122.600;2023-07-02T08:16:20;18.00;1.00
1361;DHT22;674;45.552;-122.600;2023-07-02T08:18:49;17.90;1.00
1361;DHT22;674;45.552;-122.600;2023-07-02T08:21:17;17.90;1.00
1361;DHT22;674;45.552;-122.600;2023-07-02T08:23:45;17.80;1.00
1361;DHT22;674;45.552;-122.600;2023-07-02T08:26:13;17.70;1.00
1361;DHT22;674;45.552;-122.600;2023-07-02T08:28:42;17.70;1.00
1361;DHT22;674;45.552;-122.600;2023-07-02T08:31:10;17.70;1.00
1361;DHT22;674;45.552;-122.600;2023-07-02T08:33:38;17.70;1.00
1361;DHT22;674;45.552;-122.600;2023-07-02T08:36:06;17.70;1.00
1361;DHT22;674;45.552;-122.600;2023-07-02T08:38:34;17.70;1.00
1361;DHT22;674;45.552;-122.600;2023-07-02T08:41:02;17.60;1.00
1361;DHT22;674;45.552;-122.600;2023-07-02T08:43:30;17.60;1.00
1361;DHT22;674;45.552;-122.600;2023-07-02T08:45:59;17.60;1.00
1361;DHT22;674;45.552;-122.600;2023-07-02T08:48:27;17.50;1.00
1361;DHT22;674;45.552;-122.600;2023-07-02T08:50:57;17.50;1.00
1361;DHT22;674;45.552;-122.600;2023-07-02T08:53:25;17.50;1.00
1361;DHT22;674;45.552;-122.600;2023-07-02T08:55:57;17.40;1.00
1361;DHT22;674;45.552;-122.600;2023-07-02T08:58:25;17.40;1.00
1361;DHT22;674;45.552;-122.600;2023-07-02T09:03:37;17.40;1.00
1361;DHT22;674;45.552;-122.600;2023-07-02T09:06:06;17.30;1.00
1361;DHT22;674;45.552;-122.600;2023-07-02T09:08:35;17.30;1.00
1361;DHT22;674;45.552;-122.600;2023-07-02T09:11:10;17.30;1.00
1361;DHT22;674;45.552;-122.600;2023-07-02T09:13:48;17.30;1.00
1361;DHT22;674;45.552;-122.600;2023-07-02T09:16:34;17.20;1.00
1361;DHT22;674;45.552;-122.600;2023-07-02T09:19:08;17.20;1.00
1361;DHT22;674;45.552;-122.600;2023-07-02T09:24:14;17.20;1.00
1361;DHT22;674;45.552;-122.600;2023-07-02T09:26:51;17.20;1.00
1361;DHT22;674;45.552;-122.600;2023-07-02T09:29:24;17.10;1.00
1361;DHT22;674;45.552;-122.600;2023-07-02T09:31:53;17.10;1.00
1361;DHT22;674;45.552;-122.600;2023-07-02T09:34:30;17.10;1.00
1361;DHT22;674;45.552;-122.600;2023-07-02T09:36:59;17.00;1.00
1361;DHT22;674;45.552;-122.600;2023-07-02T09:39:28;17.00;1.00
1361;DHT22;674;45.552;-122.600;2023-07-02T09:41:57;17.00;1.00
1361;DHT22;674;45.552;-122.600;2023-07-02T09:44:31;16.90;1.00
1361;DHT22;674;45.552;-122.600;2023-07-02T09:47:04;16.90;1.00
1361;DHT22;674;45.552;-122.600;2023-07-02T09:49:37;16.90;1.00
1361;DHT22;674;45.552;-122.600;2023-07-02T09:54:33;16.80;1.00
1361;DHT22;674;45.552;-122.600;2023-07-02T09:57:02;16.80;1.00
1361;DHT22;674;45.552;-122.600;2023-07-02T09:59:30;16.70;1.00
1361;DHT22;674;45.552;-122.600;2023-07-02T10:01:58;16.60;1.00
1361;DHT22;674;45.552;-122.600;2023-07-02T10:04:27;16.60;1.00
1361;DHT22;674;45.552;-122.600;2023-07-02T10:06:56;16.50;1.00
1361;DHT22;674;45.552;-122.600;2023-07-02T10:09:42;16.50;1.00
1361;DHT22;674;45.552;-122.600;2023-07-02T10:14:48;16.40;1.00
1361;DHT22;674;45.552;-122.600;2023-07-02T10:17:27;16.40;1.00
1361;DHT22;674;45.552;-122.600;2023-07-02T10:20:04;16.40;1.00
1361;DHT22;674;45.552;-122.600;2023-07-02T10:22:45;16.40;1.00
1361;DHT22;674;45.552;-122.600;2023-07-02T10:25:31;16.40;1.00
1361;DHT22;674;45.552;-122.600;2023-07-02T10:28:00;16.30;1.00
1361;DHT22;674;45.552;-122.600;2023-07-02T10:30:35;16.30;1.00
1361;DHT22;674;45.552;-122.600;2023-07-02T10:33:06;16.30;1.00
1361;DHT22;674;45.552;-122.600;2023-07-02T10:35:36;16.30;1.00
1361;DHT22;674;45.552;-122.600;2023-07-02T10:38:04;16.20;1.00
1361;DHT22;674;45.552;-122.600;2023-07-02T10:40:33;16.20;1.00
1361;DHT22;674;45.552;-122.600;2023-07-02T10:43:02;16.10;1.00
1361;DHT22;674;45.552;-122.600;2023-07-02T10:45:31;16.10;1.00
1361;DHT22;674;45.552;-122.600;2023-07-02T10:48:03;16.10;1.00
1361;DHT22;674;45.552;-122.600;2023-07-02T10:50:32;16.10;1.00
1361;DHT22;674;45.552;-122.600;2023-07-02T10:53:00;16.00;1.00
1361;DHT22;674;45.552;-122.600;2023-07-02T10:55:28;15.90;1.00
1361;DHT22;674;45.552;-122.600;2023-07-02T10:58:07;16.00;1.00
1361;DHT22;674;45.552;-122.600;2023-07-02T11:00:45;16.00;1.00
1361;DHT22;674;45.552;-122.600;2023-07-02T11:05:45;15.90;1.00
1361;DHT22;674;45.552;-122.600;2023-07-02T11:08:14;15.90;1.00
1361;DHT22;674;45.552;-122.600;2023-07-02T11:10:43;15.90;1.00
1361;DHT22;674;45.552;-122.600;2023-07-02T11:13:14;15.90;1.00
1361;DHT22;674;45.552;-122.600;2023-07-02T11:15:43;15.80;1.00
1361;DHT22;674;45.552;-122.600;2023-07-02T11:18:15;15.90;1.00
1361;DHT22;674;45.552;-122.600;2023-07-02T11:20:45;15.80;1.00
1361;DHT22;674;45.552;-122.600;2023-07-02T11:23:23;15.80;1.00
1361;DHT22;674;45.552;-122.600;2023-07-02T11:25:55;15.80;1.00
1361;DHT22;674;45.552;-122.600;2023-07-02T11:28:24;15.70;1.00
1361;DHT22;674;45.552;-122.600;2023-07-02T11:30:53;15.70;1.00
1361;DHT22;674;45.552;-122.600;2023-07-02T11:33:37;15.70;1.00
1361;DHT22;674;45.552;-122.600;2023-07-02T11:36:06;15.70;1.00
1361;DHT22;674;45.552;-122.600;2023-07-02T11:38:35;15.70;1.00
1361;DHT22;674;45.552;-122.600;2023-07-02T11:41:04;15.70;1.00
1361;DHT22;674;45.552;-122.600;2023-07-02T11:43:32;15.70;1.00
1361;DHT22;674;45.552;-122.600;2023-07-02T11:46:00;15.70;1.00
1361;DHT22;674;45.552;-122.600;2023-07-02T11:48:28;15.70;1.00
1361;DHT22;674;45.552;-122.600;2023-07-02T11:50:56;15.70;1.00
1361;DHT22;674;45.552;-122.600;2023-07-02T11:53:25;15.60;1.00
1361;DHT22;674;45.552;-122.600;2023-07-02T11:55:53;15.60;1.00
1361;DHT22;674;45.552;-122.600;2023-07-02T11:58:21;15.60;1.00
1361;DHT22;674;45.552;-122.600;2023-07-02T12:00:49;15.60;1.00
1361;DHT22;674;45.552;-122.600;2023-07-02T12:03:17;15.60;1.00
1361;DHT22;674;45.552;-122.600;2023-07-02T12:05:45;15.60;1.00
1361;DHT22;674;45.552;-122.600;2023-07-02T12:08:14;15.60;1.00
1361;DHT22;674;45.552;-122.600;2023-07-02T12:10:42;15.50;1.00
1361;DHT22;674;45.552;-122.600;2023-07-02T12:13:10;15.50;1.00
1361;DHT22;674;45.552;-122.600;2023-07-02T12:15:39;15.50;1.00
1361;DHT22;674;45.552;-122.600;2023-07-02T12:18:07;15.50;1.00
1361;DHT22;674;45.552;-122.600;2023-07-02T12:20:35;15.50;1.00
1361;DHT22;674;45.552;-122.600;2023-07-02T12:23:04;15.40;1.00
1361;DHT22;674;45.552;-122.600;2023-07-02T12:25:33;15.40;1.00
1361;DHT22;674;45.552;-122.600;2023-07-02T12:28:01;15.40;1.00
1361;DHT22;674;45.552;-122.600;2023-07-02T12:30:30;15.30;1.00
1361;DHT22;674;45.552;-122.600;2023-07-02T12:32:58;15.30;1.00
1361;DHT22;674;45.552;-122.600;2023-07-02T12:35:26;15.30;1.00
1361;DHT22;674;45.552;-122.600;2023-07-02T12:37:54;15.30;1.00
1361;DHT22;674;45.552;-122.600;2023-07-02T12:40:22;15.30;1.00
1361;DHT22;674;45.552;-122.600;2023-07-02T12:42:50;15.30;1.00
1361;DHT22;674;45.552;-122.600;2023-07-02T12:45:18;15.30;1.00
1361;DHT22;674;45.552;-122.600;2023-07-02T12:47:47;15.30;1.00
1361;DHT22;674;45.552;-122.600;2023-07-02T12:50:16;15.30;1.00
1361;DHT22;674;45.552;-122.600;2023-07-02T12:52:45;15.30;1.00
1361;DHT22;674;45.552;-122.600;2023-07-02T12:55:13;15.30;1.00
1361;DHT22;674;45.552;-122.600;2023-07-02T12:57:41;15.20;1.00
1361;DHT22;674;45.552;-122.600;2023-07-02T13:00:10;15.30;1.00
1361;DHT22;674;45.552;-122.600;2023-07-02T13:02:38;15.30;1.00
1361;DHT22;674;45.552;-122.600;2023-07-02T13:05:24;15.30;1.00
1361;DHT22;674;45.552;-122.600;2023-07-02T13:07:52;15.20;1.00
1361;DHT22;674;45.552;-122.600;2023-07-02T13:10:20;15.20;1.00
1361;DHT22;674;45.552;-122.600;2023-07-02T13:12:48;15.20;1.00
1361;DHT22;674;45.552;-122.600;2023-07-02T13:15:17;15.20;1.00
1361;DHT22;674;45.552;-122.600;2023-07-02T13:17:46;15.20;1.00
1361;DHT22;674;45.552;-122.600;2023-07-02T13:20:14;15.20;1.00
1361;DHT22;674;45.552;-122.600;2023-07-02T13:22:42;15.20;1.00
1361;DHT22;674;45.552;-122.600;2023-07-02T13:25:10;15.30;1.00
1361;DHT22;674;45.552;-122.600;2023-07-02T13:27:38;15.30;1.00
1361;DHT22;674;45.552;-122.600;2023-07-02T13:30:08;15.30;1.00
1361;DHT22;674;45.552;-122.600;2023-07-02T13:32:36;15.30;1.00
1361;DHT22;674;45.552;-122.600;2023-07-02T13:35:05;15.30;1.00
1361;DHT22;674;45.552;-122.600;2023-07-02T13:37:33;15.30;1.00
1361;DHT22;674;45.552;-122.600;2023-07-02T13:40:01;15.30;1.00
1361;DHT22;674;45.552;-122.600;2023-07-02T13:42:31;15.30;1.00
1361;DHT22;674;45.552;-122.600;2023-07-02T13:44:59;15.30;1.00
1361;DHT22;674;45.552;-122.600;2023-07-02T13:47:27;15.20;1.00
1361;DHT22;674;45.552;-122.600;2023-07-02T13:49:56;15.20;1.00
1361;DHT22;674;45.552;-122.600;2023-07-02T13:52:24;15.20;1.00
1361;DHT22;674;45.552;-122.600;2023-07-02T13:54:52;15.20;1.00
1361;DHT22;674;45.552;-122.600;2023-07-02T13:57:20;15.20;1.00
1361;DHT22;674;45.552;-122.600;2023-07-02T13:59:48;15.30;1.00
1361;DHT22;674;45.552;-122.600;2023-07-02T14:02:16;15.30;1.00
1361;DHT22;674;45.552;-122.600;2023-07-02T14:04:46;15.40;1.00
1361;DHT22;674;45.552;-122.600;2023-07-02T14:07:14;15.40;1.00
1361;DHT22;674;45.552;-122.600;2023-07-02T14:09:42;15.40;1.00
1361;DHT22;674;45.552;-122.600;2023-07-02T14:12:10;15.40;1.00
1361;DHT22;674;45.552;-122.600;2023-07-02T14:14:39;15.50;1.00
1361;DHT22;674;45.552;-122.600;2023-07-02T14:17:07;15.50;1.00
1361;DHT22;674;45.552;-122.600;2023-07-02T14:19:36;15.50;1.00
1361;DHT22;674;45.552;-122.600;2023-07-02T14:22:04;15.60;1.00
1361;DHT22;674;45.552;-122.600;2023-07-02T14:24:33;15.70;1.00
1361;DHT22;674;45.552;-122.600;2023-07-02T14:27:01;15.70;1.00
1361;DHT22;674;45.552;-122.600;2023-07-02T14:29:29;15.80;1.00
1361;DHT22;674;45.552;-122.600;2023-07-02T14:31:58;15.70;1.00
1361;DHT22;674;45.552;-122.600;2023-07-02T14:34:26;15.80;1.00
1361;DHT22;674;45.552;-122.600;2023-07-02T14:36:55;15.80;1.00
1361;DHT22;674;45.552;-122.600;2023-07-02T14:39:23;15.90;1.00
1361;DHT22;674;45.552;-122.600;2023-07-02T14:41:51;15.90;1.00
1361;DHT22;674;45.552;-122.600;2023-07-02T14:44:19;16.00;1.00
1361;DHT22;674;45.552;-122.600;2023-07-02T14:46:48;16.10;1.00
1361;DHT22;674;45.552;-122.600;2023-07-02T14:49:16;16.20;1.00
1361;DHT22;674;45.552;-122.600;2023-07-02T14:51:44;16.30;1.00
1361;DHT22;674;45.552;-122.600;2023-07-02T14:54:12;16.40;1.00
1361;DHT22;674;45.552;-122.600;2023-07-02T14:56:40;16.50;1.00
1361;DHT22;674;45.552;-122.600;2023-07-02T14:59:08;16.60;1.00
1361;DHT22;674;45.552;-122.600;2023-07-02T15:01:36;16.70;1.00
1361;DHT22;674;45.552;-122.600;2023-07-02T15:04:04;16.80;1.00
1361;DHT22;674;45.552;-122.600;2023-07-02T15:06:33;16.90;1.00
1361;DHT22;674;45.552;-122.600;2023-07-02T15:09:02;17.00;1.00
1361;DHT22;674;45.552;-122.600;2023-07-02T15:11:30;17.20;1.00
1361;DHT22;674;45.552;-122.600;2023-07-02T15:13:59;17.20;1.00
1361;DHT22;674;45.552;-122.600;2023-07-02T15:16:27;17.20;1.00
1361;DHT22;674;45.552;-122.600;2023-07-02T15:18:55;17.20;1.00
1361;DHT22;674;45.552;-122.600;2023-07-02T15:21:23;17.30;1.00
1361;DHT22;674;45.552;-122.600;2023-07-02T15:23:52;17.30;1.00
1361;DHT22;674;45.552;-122.600;2023-07-02T15:26:20;17.30;1.00
1361;DHT22;674;45.552;-122.600;2023-07-02T15:28:48;17.30;1.00
1361;DHT22;674;45.552;-122.600;2023-07-02T15:31:17;17.30;1.00
1361;DHT22;674;45.552;-122.600;2023-07-02T15:33:48;17.20;1.00
1361;DHT22;674;45.552;-122.600;2023-07-02T15:36:16;17.30;1.00
1361;DHT22;674;45.552;-122.600;2023-07-02T15:38:44;17.20;1.00
1361;DHT22;674;45.552;-122.600;2023-07-02T15:41:14;17.20;1.00
1361;DHT22;674;45.552;-122.600;2023-07-02T15:43:43;17.30;1.00
1361;DHT22;674;45.552;-122.600;2023-07-02T15:46:13;17.40;1.00
1361;DHT22;674;45.552;-122.600;2023-07-02T15:48:42;17.40;1.00
1361;DHT22;674;45.552;-122.600;2023-07-02T15:51:10;17.50;1.00
1361;DHT22;674;45.552;-122.600;2023-07-02T15:53:39;17.50;1.00
1361;DHT22;674;45.552;-122.600;2023-07-02T15:56:07;17.70;1.00
1361;DHT22;674;45.552;-122.600;2023-07-02T15:58:35;17.70;1.00
1361;DHT22;674;45.552;-122.600;2023-07-02T16:01:10;17.80;1.00
1361;DHT22;674;45.552;-122.600;2023-07-02T16:03:39;17.80;1.00
1361;DHT22;674;45.552;-122.600;2023-07-02T16:06:10;17.80;1.00
1361;DHT22;674;45.552;-122.600;2023-07-02T16:08:38;17.90;1.00